Toto, Indiana
Current Conditions -  °F | °C
As of 6:55 PM on Monday 26 Jan 2015 (Local Time) from KOXI Reporting Station
Overcast Overcast  
Wind Chill: 18°   Ceiling: 4200
Heat Index: 24°   Visibility: 10mi
Dew Point:   Wind: 5mph
Humidity: 47%   Direction: 170°S
Pressure: 29.93"   Gusts: NA
Location:  41.2954°N, 86.6039°W
Report Text: KOXI 270055Z AUTO 17004KT 10SM OVC042 M05/M15 A2993 RMK AO1 T10471146
Loading
Personal Weather Stations






























Interactive Weather Map New forecast layout! Learn more

10-Day Weather Forecast

Advertisements
Track Severe Weather on mobile